Serene Lakes, California
Current Conditions -  °F | °C
As of 4:52 AM on Thursday 27 Nov 2014 (Local Time) from KBLU Reporting Station
Clear Clear  
Wind Chill: 54°   Ceiling: Unl
Heat Index: 54°   Visibility: 10mi
Dew Point: 21°   Wind: 7mph
Humidity: 28%   Direction: 130°SE
Pressure: 30.32"   Gusts: NA
Location:  39.4261°N, 120.475°W
Report Text: KBLU 271252Z AUTO 13006KT 10SM CLR 12/M06 A3032 RMK AO2 SLP212 T01221061
Loading
Personal Weather Stations






























Interactive Weather Map New forecast layout! Learn more

10-Day Weather Forecast

Advertisements
Track Severe Weather on mobile